Hartford, Connecticut
Traffic Map
Current Weather Conditions
Hartford, Connecticut
Clear
Clear
87°
Feels Like: 87°
Wind Chill: 87° Ceiling: Unl
Heat Index: 87° Visibility: 10mi
Dew Point: 53° Wind: 7mph
Humidity: 31% Direction: 280° (W)
Pressure: 29.89in Gusts: 0mph
Raw Report DataKHFD 312253Z 28006KT 10SM CLR 31/12 A2989 RMK AO2 SLP121 T03060117
Traffic Incident Summary
Active as of:
Severity:
Category:
InformationThere was an issue retrieving the traffic information for this location. Please try a different location or try again shortly.
Advertisements
Track Severe Weather on mobile